Nearby METAR Reports

 

KMTN - Baltimore/Martin, Maryland, USA
Distance from station: SSE 8mi, 13km
Updated: Sun, 14-Feb-2016 3:45pm EST
Partly cloudy
Partly cloudy
 Wind from NNW
Wind: NNW 5 mph , 7 km/h
Temperature: 25°F , -4°C
Wind Chill: 19°F , -7°C
Dew Point: -0°F , -18°C
Humidity: 33%
Barometer: 30.54 inHg , 1034.2 hPa
Clouds: Partly cloudy
Visibility: 10 miles , 16 km
Cloud details: Partly cloudy 20000 ft
2016/02/14 20:45 KMTN 142045Z 33004KT 10SM SCT200 M04/M18 A3054
KDMH - Baltimore/Dwntwn, Maryland, USA
Distance from station: SW 12mi, 19km
Updated: Sun, 14-Feb-2016 2:54pm EST

 
Temperature: 21°F , -6°C
Dew Point: -2°F , -19°C
Humidity: 35%
Barometer: 30.46 inHg , 1031.5 hPa
2016/02/14 19:54 KDMH 141954Z AUTO M06/M19 A3046 RMK AO1 PRESFR SLP313 T10561189
 
KBWI - Balto/Wash Intl, Maryland, USA
Distance from station: SSW 20mi, 33km
Updated: Sun, 14-Feb-2016 2:54pm EST
Partly cloudy
Partly cloudy
 Wind from varies
Wind: varies 5 mph , 7 km/h
Temperature: 23°F , -5°C
Wind Chill: 17°F , -8°C
Dew Point: -4°F , -20°C
Humidity: 30%
Barometer: 30.48 inHg , 1032.2 hPa
Clouds: Partly cloudy
Visibility: 10 miles , 16 km
Cloud details: Partly cloudy 25000 ft
2016/02/14 19:54 KBWI 141954Z VRB04KT 10SM SCT250 M05/M20 A3048 RMK AO2 SLP324 T10501200
KDMW - Carroll Cnty, Maryland, USA
Distance from station: WNW 30mi, 48km
Updated: Sun, 14-Feb-2016 3:25pm EST
Clear
Clear
 Wind from calm
Wind: Calm
Temperature: 18°F , -8°C
Dew Point: 3°F , -16°C
Humidity: 53%
Barometer: 30.44 inHg , 1030.8 hPa
Clouds: Clear
Visibility: 10 miles , 16 km
2016/02/14 20:25 KDMW 142025Z AUTO 00000KT 10SM CLR M08/M16 A3044 RMK AO2
 
KNAK - Annapolis/Naval, Maryland, USA
Distance from station: S 30mi, 48km
Updated: Sun, 14-Feb-2016 2:54pm EST
Clear
Clear
 Wind from N
Wind: N 5 mph , 7 km/h
Barometer: 30.49 inHg , 1032.5 hPa
Clouds: Clear
Visibility: 10 miles , 16 km
2016/02/14 19:54 KNAK 141954Z AUTO 36004KT 10SM CLR A3049 RMK AO2 SLP328 $
KW29 - Stevensville, Maryland, USA
Distance from station: SSE 31mi, 50km
Updated: Sun, 14-Feb-2016 3:27pm EST

 Wind from calm
Wind: Calm
Temperature: 23°F , -5°C
Dew Point: -0°F , -18°C
Humidity: 36%
Barometer: 30.51 inHg , 1033.2 hPa
Visibility: 10 miles , 16 km
2016/02/14 20:27 KW29 142027Z AUTO 00000KT 10SM M05/M18 A3051 RMK AO1
 
KCGS - College Park, Maryland, USA
Distance from station: SW 38mi, 61km
Updated: Sun, 14-Feb-2016 3:25pm EST
Clear
Clear
 Wind from calm
Wind: Calm
Temperature: 27°F , -3°C
Dew Point: -2°F , -19°C
Humidity: 28%
Barometer: 30.50 inHg , 1032.8 hPa
Clouds: Clear
Visibility: 10 miles , 16 km
2016/02/14 20:25 KCGS 142025Z AUTO 00000KT 10SM CLR M03/M19 A3050 RMK AO1
KGAI - Gaithersburg, Maryland, USA
Distance from station: WSW 40mi, 65km
Updated: Sun, 14-Feb-2016 3:35pm EST
Clear
Clear
 Wind from N
Wind: N 3 mph , 6 km/h
Temperature: 21°F , -6°C
Dew Point: -0°F , -18°C
Humidity: 38%
Barometer: 30.51 inHg , 1033.2 hPa
Clouds: Clear
Visibility: 10 miles , 16 km
2016/02/14 20:35 KGAI 142035Z AUTO 36003KT 10SM CLR M06/M18 A3051 RMK AO1
 
KTHV - York, Pennsylvania, USA
Distance from station: NNW 40mi, 65km
Updated: Sun, 14-Feb-2016 2:53pm EST
Clear
Clear
 Wind from calm
Wind: Calm
Temperature: 18°F , -8°C
Dew Point: -2°F , -19°C
Humidity: 41%
Barometer: 30.45 inHg , 1031.2 hPa
Clouds: Clear
Visibility: 10 miles , 16 km
2016/02/14 19:53 KTHV 141953Z AUTO 00000KT 10SM CLR M08/M19 A3045 RMK AO2 SLP325 T10831194
KFDK - Frederick, Maryland, USA
Distance from station: W 47mi, 75km
Updated: Sun, 14-Feb-2016 3:45pm EST
Clear
Clear
 Wind from varies
Wind: varies 5 mph , 7 km/h
Temperature: 21°F , -6°C
Wind Chill: 14°F , -10°C
Dew Point: 3°F , -16°C
Humidity: 45%
Barometer: 30.52 inHg , 1033.5 hPa
Clouds: Clear
Visibility: 10 miles , 16 km
2016/02/14 20:45 KFDK 142045Z VRB04KT 10SM SKC M06/M16 A3052
 
KESN - Easton/Newnam, Maryland, USA
Distance from station: SSE 48mi, 78km
Updated: Sun, 14-Feb-2016 2:50pm EST
Clear
Clear
 Wind from NW
Wind: NW 9 mph , 15 km/h
Temperature: 23°F , -5°C
Wind Chill: 13°F , -11°C
Dew Point: -0°F , -18°C
Humidity: 36%
Barometer: 30.53 inHg , 1033.9 hPa
Clouds: Clear
Visibility: 10 miles , 16 km
2016/02/14 19:50 KESN 141950Z 32008KT 10SM SKC M05/M18 A3053
KDCA - Washington/Natl, Washington D.c., USA
Distance from station: SW 49mi, 79km
Updated: Sun, 14-Feb-2016 2:52pm EST
Mostly cloudy
Mostly cloudy
 Wind from N
Wind: N 8 mph , 13 km/h
Temperature: 25°F , -4°C
Wind Chill: 16°F , -9°C
Dew Point: -2°F , -19°C
Humidity: 30%
Barometer: 30.49 inHg , 1032.5 hPa
Clouds: Mostly cloudy
Visibility: 10 miles , 16 km
Cloud details: Few Clouds 5000 ft
Partly cloudy 15000 ft
Mostly cloudy 25000 ft
2016/02/14 19:52 KDCA 141952Z 01007KT 10SM FEW050 SCT150 BKN250 M04/M19 A3049 RMK AO2 SLP323 T10391189
 
KLNS - Lancaster, Pennsylvania, USA
Distance from station: N 49mi, 79km
Updated: Sun, 14-Feb-2016 2:53pm EST
Clear
Clear
 Wind from NNW
Wind: NNW 5 mph , 7 km/h
Temperature: 16°F , -9°C
Wind Chill: 8°F , -13°C
Dew Point: -6°F , -21°C
Humidity: 37%
Barometer: 30.47 inHg , 1031.8 hPa
Clouds: Clear
Visibility: 10 miles , 16 km
2016/02/14 19:53 KLNS 141953Z 34004KT 10SM CLR M09/M21 A3047 RMK AO2 SLP327 T10941206
KILG - Wilmington, Delaware, USA
Distance from station: ENE 50mi, 81km
Updated: Sun, 14-Feb-2016 2:51pm EST
Clear
Clear
 Wind from N
Wind: N 13 mph , 20 km/h, Gust: 20 mph , 31 km/h
Temperature: 18°F , -8°C
Wind Chill: 5°F , -15°C
Dew Point: -4°F , -20°C
Humidity: 38%
Barometer: 30.52 inHg , 1033.5 hPa
Clouds: Clear
Visibility: 10 miles , 16 km
2016/02/14 19:51 KILG 141951Z AUTO 35011G17KT 10SM CLR M08/M20 A3052 RMK AO2 SLP335 T10781200